Time;durP1;ratioP1;P1;durP2;ratioP2;P2;SDS_P1;SDS_P2;PMS_P1;PMS_P2;Temp;Humidity;BMP_temperature;BMP_pressure;BME280_temperature;BME280_humidity;BME280_pressure;Samples;Min_cycle;Max_cycle;Signal;HPM_P1;HPM_P2
2021/08/23 00:02:25;;;;;;;10.15;9.35;;;18.10;92.90;;;;;;5084357;28;20062;-83
2021/08/23 00:04:51;;;;;;;10.65;9.73;;;18.10;92.90;;;;;;5117764;28;20028;-83
2021/08/23 00:07:17;;;;;;;10.88;9.90;;;18.10;92.90;;;;;;5133649;27;20052;-81
2021/08/23 00:09:42;;;;;;;10.73;9.73;;;18.20;93.00;;;;;;5089316;28;20464;-80
2021/08/23 00:12:08;;;;;;;11.75;10.65;;;18.20;93.00;;;;;;5080846;28;20112;-80
2021/08/23 00:14:34;;;;;;;12.25;11.15;;;18.20;93.00;;;;;;5099829;28;20035;-82
2021/08/23 00:17:00;;;;;;;11.63;10.48;;;18.20;93.00;;;;;;5116542;28;20035;-82
2021/08/23 00:19:26;;;;;;;14.82;12.10;;;18.30;93.10;;;;;;5118314;28;20043;-82
2021/08/23 00:22:00;;;;;;;11.95;10.85;;;18.20;93.00;;;;;;5118017;28;20054;-83
2021/08/23 00:24:27;;;;;;;12.10;11.00;;;18.30;93.10;;;;;;5099750;28;20028;-85
2021/08/23 00:26:55;;;;;;;12.80;11.70;;;18.30;93.10;;;;;;5100390;28;20467;-84
2021/08/23 00:29:22;;;;;;;12.93;11.63;;;18.30;93.10;;;;;;5100524;28;20027;-84
2021/08/23 00:31:48;;;;;;;12.93;11.65;;;18.30;93.10;;;;;;5100008;28;20027;-84
2021/08/23 00:34:15;;;;;;;12.82;11.50;;;18.30;93.10;;;;;;5071170;28;20028;-83
2021/08/23 00:36:41;;;;;;;12.93;11.73;;;18.30;93.10;;;;;;5116878;28;20039;-84
2021/08/23 00:39:08;;;;;;;13.88;11.85;;;18.30;93.10;;;;;;5132499;28;20085;-82
2021/08/23 00:41:36;;;;;;;13.25;11.90;;;18.30;93.10;;;;;;5128500;28;20036;-80
2021/08/23 00:44:03;;;;;;;13.73;12.40;;;18.40;93.10;;;;;;5124703;28;20143;-83
2021/08/23 00:46:29;;;;;;;14.07;12.52;;;18.40;93.10;;;;;;5124298;28;20427;-84
2021/08/23 00:48:55;;;;;;;15.02;13.48;;;18.30;93.10;;;;;;5121407;28;20020;-84
2021/08/23 00:51:21;;;;;;;15.13;13.65;;;18.30;93.10;;;;;;5099237;28;20024;-84
2021/08/23 00:53:47;;;;;;;14.40;13.10;;;18.40;93.10;;;;;;5093126;28;20028;-83
2021/08/23 00:56:13;;;;;;;15.13;12.18;;;18.40;93.10;;;;;;5117494;28;20099;-83
2021/08/23 00:58:39;;;;;;;15.25;13.73;;;18.40;93.10;;;;;;5117706;28;20042;-83
2021/08/23 01:01:13;;;;;;;14.05;12.75;;;18.40;93.00;;;;;;5119632;28;20031;-84
2021/08/23 01:04:03;;;;;;;15.40;13.80;;;18.40;93.00;;;;;;5117418;28;20047;-83
2021/08/23 01:06:30;;;;;;;16.58;14.38;;;18.40;93.00;;;;;;5069985;28;20043;-83
2021/08/23 01:09:07;;;;;;;16.75;14.25;;;18.40;93.00;;;;;;5099419;28;20364;-83
2021/08/23 01:11:47;;;;;;;15.77;14.27;;;18.40;93.00;;;;;;5116527;28;20044;-84
2021/08/23 01:14:12;;;;;;;17.75;13.85;;;18.40;93.00;;;;;;5118926;28;20042;-84
2021/08/23 01:16:38;;;;;;;16.75;15.05;;;18.40;93.00;;;;;;5101527;28;20456;-83
2021/08/23 01:19:05;;;;;;;15.98;14.45;;;18.40;93.00;;;;;;5101502;28;20034;-83
2021/08/23 01:21:32;;;;;;;18.20;14.20;;;18.50;93.00;;;;;;5116678;28;20096;-85
2021/08/23 01:24:00;;;;;;;15.20;13.70;;;18.50;93.00;;;;;;5118166;28;20460;-84
2021/08/23 01:26:37;;;;;;;16.63;14.93;;;18.50;92.90;;;;;;5118772;28;20114;-83
2021/08/23 01:29:17;;;;;;;17.25;14.25;;;18.50;92.90;;;;;;5119379;28;20083;-83
2021/08/23 01:32:05;;;;;;;16.83;15.02;;;18.50;92.90;;;;;;5118462;28;20031;-83
2021/08/23 01:34:32;;;;;;;15.80;14.15;;;18.50;92.90;;;;;;5121790;28;20032;-81
2021/08/23 01:36:58;;;;;;;15.07;13.57;;;18.50;92.90;;;;;;5088414;28;20043;-82
2021/08/23 01:39:23;;;;;;;16.38;14.70;;;18.50;92.90;;;;;;5122278;28;20533;-81
2021/08/23 01:41:49;;;;;;;16.40;14.85;;;18.50;92.90;;;;;;5121094;28;20036;-82
2021/08/23 01:44:15;;;;;;;16.50;14.90;;;18.50;92.90;;;;;;5104174;28;20031;-81
2021/08/23 01:46:40;;;;;;;17.40;15.50;;;18.50;92.90;;;;;;5121059;28;20024;-82
2021/08/23 01:49:08;;;;;;;16.92;15.10;;;18.50;93.00;;;;;;5103623;28;20502;-85
2021/08/23 01:51:35;;;;;;;16.17;14.57;;;18.50;93.10;;;;;;5117145;28;20038;-84
2021/08/23 01:54:01;;;;;;;15.77;14.27;;;18.50;93.10;;;;;;5119365;28;20039;-85
2021/08/23 01:56:27;;;;;;;15.73;14.27;;;18.40;93.10;;;;;;5134816;28;20066;-84
2021/08/23 01:58:54;;;;;;;16.02;14.23;;;18.50;93.10;;;;;;5123043;28;20106;-84
2021/08/23 02:01:19;;;;;;;15.60;14.07;;;18.50;93.10;;;;;;5103052;28;20036;-82
2021/08/23 02:03:45;;;;;;;15.90;14.35;;;18.50;93.00;;;;;;5102045;28;20035;-85
2021/08/23 02:06:11;;;;;;;15.82;14.30;;;18.50;93.10;;;;;;5118104;28;20180;-82
2021/08/23 02:08:36;;;;;;;17.30;15.55;;;18.40;93.10;;;;;;5119480;28;20024;-82
2021/08/23 02:11:02;;;;;;;17.33;15.52;;;18.40;93.10;;;;;;5118989;28;20048;-83
2021/08/23 02:13:28;;;;;;;15.27;13.88;;;18.40;93.10;;;;;;5116971;28;20031;-83
2021/08/23 02:15:54;;;;;;;19.58;17.58;;;18.40;93.10;;;;;;5117876;28;20539;-84
2021/08/23 02:18:19;;;;;;;19.10;17.25;;;18.30;93.20;;;;;;5099381;28;20091;-84
2021/08/23 02:20:45;;;;;;;19.10;16.90;;;18.30;93.30;;;;;;5099574;28;20047;-84
2021/08/23 02:23:11;;;;;;;19.05;17.25;;;18.20;93.40;;;;;;5099191;28;20512;-82
2021/08/23 02:25:37;;;;;;;18.73;16.67;;;18.20;93.50;;;;;;5115439;28;20039;-82
2021/08/23 02:28:04;;;;;;;22.52;20.10;;;18.10;93.50;;;;;;5099063;28;20126;-82
2021/08/23 02:30:29;;;;;;;20.33;18.35;;;18.00;93.70;;;;;;5115746;28;20034;-83
2021/08/23 02:32:55;;;;;;;18.75;16.95;;;18.00;93.80;;;;;;5100350;28;20028;-84
2021/08/23 02:35:21;;;;;;;18.17;16.27;;;17.90;93.80;;;;;;5116349;28;20043;-83
2021/08/23 02:37:46;;;;;;;17.80;16.20;;;17.90;93.90;;;;;;5117005;28;20027;-84
2021/08/23 02:40:12;;;;;;;19.27;17.30;;;18.00;94.00;;;;;;5116570;28;20038;-85
2021/08/23 02:42:39;;;;;;;18.17;16.48;;;18.00;94.00;;;;;;5098831;28;20278;-83
2021/08/23 02:45:05;;;;;;;18.30;16.50;;;17.90;94.00;;;;;;5116667;28;20053;-83
2021/08/23 02:47:35;;;;;;;18.48;16.67;;;18.00;94.10;;;;;;5115545;28;20035;-83
2021/08/23 02:50:02;;;;;;;21.98;17.98;;;17.90;94.00;;;;;;5099444;28;20031;-83
2021/08/23 02:52:28;;;;;;;19.42;17.50;;;17.90;94.10;;;;;;5098929;28;20028;-83
2021/08/23 02:54:54;;;;;;;21.58;19.30;;;17.90;94.10;;;;;;5116829;28;20089;-85
2021/08/23 02:57:19;;;;;;;19.55;17.65;;;17.90;94.30;;;;;;5117768;28;20039;-84
2021/08/23 02:59:45;;;;;;;22.73;20.20;;;17.90;94.30;;;;;;5116002;28;20031;-84
2021/08/23 03:02:10;;;;;;;23.50;21.13;;;17.90;94.30;;;;;;5116348;28;20035;-81
2021/08/23 03:04:36;;;;;;;23.40;21.10;;;17.90;94.30;;;;;;5115987;28;20035;-85
2021/08/23 03:07:02;;;;;;;24.75;22.25;;;17.80;94.40;;;;;;5116839;28;20091;-83
2021/08/23 03:09:27;;;;;;;23.25;20.80;;;17.80;94.40;;;;;;5099185;28;20023;-84
2021/08/23 03:11:53;;;;;;;23.17;20.75;;;17.80;94.40;;;;;;5117635;28;20058;-84
2021/08/23 03:14:19;;;;;;;28.00;25.05;;;17.80;94.50;;;;;;5112761;28;20032;-83
2021/08/23 03:16:44;;;;;;;29.70;24.70;;;17.80;94.50;;;;;;5094166;28;20032;-83
2021/08/23 03:19:10;;;;;;;28.70;25.60;;;17.70;94.60;;;;;;5078060;28;20035;-83
2021/08/23 03:21:36;;;;;;;32.72;28.23;;;17.70;94.60;;;;;;5096349;28;20073;-83
2021/08/23 03:24:01;;;;;;;32.03;27.25;;;17.70;94.60;;;;;;5119051;28;20087;-83
2021/08/23 03:26:27;;;;;;;32.25;27.15;;;17.70;94.70;;;;;;5122829;28;20055;-84
2021/08/23 03:28:53;;;;;;;33.45;28.20;;;17.60;94.60;;;;;;5126252;28;20051;-83
2021/08/23 03:31:18;;;;;;;35.45;30.27;;;17.60;94.60;;;;;;5124849;28;20054;-82
2021/08/23 03:33:44;;;;;;;37.45;30.52;;;17.60;94.60;;;;;;5125021;28;20083;-82
2021/08/23 03:36:10;;;;;;;35.55;30.35;;;17.50;94.60;;;;;;5108708;28;20032;-81
2021/08/23 03:38:36;;;;;;;35.03;29.73;;;17.50;94.60;;;;;;5113103;28;20441;-83
2021/08/23 03:41:01;;;;;;;36.90;29.90;;;17.50;94.60;;;;;;5113498;28;20119;-83
2021/08/23 03:43:27;;;;;;;37.55;30.52;;;17.40;94.60;;;;;;5111764;28;20027;-83
2021/08/23 03:45:53;;;;;;;32.08;26.88;;;17.40;94.70;;;;;;5111723;28;20502;-83
2021/08/23 03:48:18;;;;;;;30.88;26.70;;;17.30;94.60;;;;;;5112057;28;20741;-83
2021/08/23 03:50:44;;;;;;;30.20;24.38;;;17.30;94.70;;;;;;5111622;28;20039;-83
2021/08/23 03:53:10;;;;;;;32.05;26.73;;;17.20;94.60;;;;;;5094392;28;20388;-83
2021/08/23 03:55:35;;;;;;;31.27;25.65;;;17.20;94.70;;;;;;5094116;28;20031;-83
2021/08/23 03:58:03;;;;;;;28.17;24.48;;;17.20;94.70;;;;;;5094625;28;20031;-82
2021/08/23 04:00:29;;;;;;;35.03;26.63;;;17.20;94.70;;;;;;5093816;28;20036;-83
2021/08/23 04:02:54;;;;;;;32.00;26.13;;;17.20;94.70;;;;;;5076704;28;20038;-82
2021/08/23 04:05:20;;;;;;;31.15;25.40;;;17.10;94.70;;;;;;5110820;28;20024;-81
2021/08/23 04:07:45;;;;;;;33.90;28.50;;;17.00;94.80;;;;;;5093134;28;20032;-84
2021/08/23 04:10:11;;;;;;;31.35;24.42;;;17.00;94.80;;;;;;5076936;28;20034;-82
2021/08/23 04:12:37;;;;;;;31.15;26.23;;;16.90;94.80;;;;;;5104568;28;20051;-83
2021/08/23 04:15:03;;;;;;;31.48;25.85;;;17.00;94.90;;;;;;5073734;28;20459;-83
2021/08/23 04:17:29;;;;;;;33.53;27.08;;;16.90;94.90;;;;;;5081772;28;20023;-83
2021/08/23 04:19:55;;;;;;;34.22;26.77;;;16.90;95.00;;;;;;5093622;28;20387;-82
2021/08/23 04:22:20;;;;;;;33.90;26.25;;;17.00;95.00;;;;;;5111725;28;20367;-83
2021/08/23 04:24:46;;;;;;;38.03;28.73;;;17.00;95.00;;;;;;5110934;28;20448;-82
2021/08/23 04:27:12;;;;;;;33.47;26.48;;;17.00;95.00;;;;;;5112140;28;20027;-83
2021/08/23 04:29:37;;;;;;;31.63;25.80;;;17.00;95.00;;;;;;5111987;28;20024;-83
2021/08/23 04:32:03;;;;;;;31.02;24.98;;;17.00;95.10;;;;;;5077755;28;20116;-83
2021/08/23 04:34:29;;;;;;;33.97;26.20;;;17.10;95.10;;;;;;5110613;28;20040;-83
2021/08/23 04:36:55;;;;;;;29.75;23.60;;;17.10;95.10;;;;;;5112719;28;20024;-83
2021/08/23 04:39:20;;;;;;;32.42;23.50;;;17.10;95.10;;;;;;5114558;28;20046;-81
2021/08/23 04:41:46;;;;;;;33.90;26.20;;;17.30;95.10;;;;;;5114551;28;20437;-81
2021/08/23 04:44:12;;;;;;;33.72;25.08;;;17.30;95.00;;;;;;5082200;28;20019;-82
2021/08/23 04:46:37;;;;;;;28.88;24.33;;;17.40;94.90;;;;;;5098476;28;20020;-84
2021/08/23 04:49:04;;;;;;;30.58;24.30;;;17.50;94.90;;;;;;5119138;28;20522;-81
2021/08/23 04:51:29;;;;;;;29.08;24.67;;;17.60;94.80;;;;;;5115058;28;20100;-81
2021/08/23 04:53:55;;;;;;;27.73;24.83;;;17.50;94.60;;;;;;5114158;28;20491;-82
2021/08/23 04:56:21;;;;;;;25.80;22.98;;;17.60;94.60;;;;;;5115056;28;20399;-82
2021/08/23 04:58:47;;;;;;;25.08;22.38;;;17.60;94.50;;;;;;5097380;28;20035;-83
2021/08/23 05:01:12;;;;;;;23.85;20.88;;;17.60;94.40;;;;;;5114985;28;20383;-81
2021/08/23 05:03:38;;;;;;;24.77;22.00;;;17.70;94.40;;;;;;5080589;28;20065;-82
2021/08/23 05:06:04;;;;;;;26.63;23.77;;;17.70;94.30;;;;;;5115186;28;20106;-82
2021/08/23 05:08:30;;;;;;;25.17;22.40;;;17.70;94.20;;;;;;5116245;28;20476;-82
2021/08/23 05:10:56;;;;;;;24.33;21.73;;;17.70;94.20;;;;;;5114922;28;20026;-83
2021/08/23 05:13:21;;;;;;;27.00;23.40;;;17.80;94.20;;;;;;5114672;28;20028;-83
2021/08/23 05:15:47;;;;;;;25.60;22.80;;;17.90;94.10;;;;;;5097323;28;20126;-82
2021/08/23 05:18:13;;;;;;;25.50;22.88;;;17.80;94.00;;;;;;5114909;28;20024;-82
2021/08/23 05:20:39;;;;;;;28.92;24.25;;;17.80;94.00;;;;;;5114761;28;20035;-83
2021/08/23 05:23:05;;;;;;;27.65;23.55;;;17.80;93.90;;;;;;5114437;28;20053;-83
2021/08/23 05:25:33;;;;;;;30.58;27.27;;;17.80;94.00;;;;;;5097422;28;20023;-82
2021/08/23 05:28:01;;;;;;;31.30;27.77;;;17.70;93.90;;;;;;5114198;28;20032;-82
2021/08/23 05:30:26;;;;;;;35.85;28.90;;;17.70;94.00;;;;;;5114572;28;20091;-82
2021/08/23 05:32:52;;;;;;;35.65;30.60;;;17.70;94.00;;;;;;5108490;28;20472;-82
2021/08/23 05:35:18;;;;;;;35.92;27.60;;;17.60;94.00;;;;;;5077665;28;20036;-83
2021/08/23 05:37:44;;;;;;;34.15;28.67;;;17.60;94.10;;;;;;5095145;28;20059;-82
2021/08/23 05:40:10;;;;;;;43.55;34.80;;;17.60;94.20;;;;;;5113891;28;20035;-83
2021/08/23 05:42:36;;;;;;;41.10;33.60;;;17.60;94.10;;;;;;5116193;28;20031;-83
2021/08/23 05:45:02;;;;;;;41.45;32.72;;;17.60;94.20;;;;;;5080154;28;20020;-83
2021/08/23 05:47:27;;;;;;;45.97;36.85;;;17.70;94.20;;;;;;5113992;28;20026;-81
2021/08/23 05:49:53;;;;;;;45.40;36.03;;;17.70;94.20;;;;;;5111906;28;20102;-82
2021/08/23 05:52:19;;;;;;;46.25;35.30;;;17.70;94.10;;;;;;5114657;28;20085;-82
2021/08/23 05:54:46;;;;;;;45.35;36.10;;;17.80;94.20;;;;;;5096865;28;20027;-82
2021/08/23 05:57:12;;;;;;;48.30;36.72;;;17.80;94.10;;;;;;5097297;28;20127;-83
2021/08/23 05:59:38;;;;;;;55.28;38.72;;;17.80;94.10;;;;;;5113191;28;20547;-81
2021/08/23 06:02:04;;;;;;;44.92;32.42;;;17.80;94.10;;;;;;5112488;28;20126;-82
2021/08/23 06:04:29;;;;;;;45.28;33.60;;;17.90;94.10;;;;;;5096264;28;20063;-82
2021/08/23 06:06:55;;;;;;;46.72;34.97;;;17.90;94.10;;;;;;5112444;28;20024;-83
2021/08/23 06:09:21;;;;;;;43.03;32.33;;;18.00;94.10;;;;;;5113548;28;20118;-82
2021/08/23 06:11:48;;;;;;;55.97;40.13;;;18.10;94.00;;;;;;5114163;28;20040;-82
2021/08/23 06:14:13;;;;;;;52.30;37.85;;;18.10;93.80;;;;;;5112087;28;20038;-82
2021/08/23 06:16:40;;;;;;;51.40;37.72;;;18.00;93.80;;;;;;5074460;28;20036;-83
2021/08/23 06:19:06;;;;;;;48.00;35.17;;;18.00;93.80;;;;;;5058473;28;20034;-83
2021/08/23 06:21:34;;;;;;;48.88;36.85;;;17.90;93.80;;;;;;5092148;28;20050;-82
2021/08/23 06:23:59;;;;;;;45.42;33.92;;;17.90;93.80;;;;;;5108660;28;20020;-83
2021/08/23 06:26:25;;;;;;;48.58;36.38;;;17.90;93.80;;;;;;5095845;28;20473;-81
2021/08/23 06:28:50;;;;;;;42.33;32.17;;;18.00;93.80;;;;;;5112215;28;20378;-85
2021/08/23 06:31:16;;;;;;;41.40;31.50;;;17.90;93.80;;;;;;5087539;28;20461;-81
2021/08/23 06:33:42;;;;;;;42.80;32.17;;;18.00;93.80;;;;;;5099366;28;20042;-82
2021/08/23 06:36:07;;;;;;;48.88;35.35;;;18.10;93.70;;;;;;5094430;28;20055;-81
2021/08/23 06:38:33;;;;;;;45.25;34.65;;;18.10;93.70;;;;;;5091273;28;20028;-84
2021/08/23 06:40:59;;;;;;;42.83;31.95;;;18.10;93.80;;;;;;5109319;28;20044;-83
2021/08/23 06:43:25;;;;;;;41.35;31.30;;;18.10;93.60;;;;;;5112095;28;20020;-84
2021/08/23 06:45:51;;;;;;;40.53;31.83;;;18.20;93.60;;;;;;5087213;28;20019;-81
2021/08/23 06:48:17;;;;;;;47.22;35.47;;;18.20;93.50;;;;;;5093988;28;20505;-82
2021/08/23 06:50:42;;;;;;;43.05;31.42;;;18.40;93.50;;;;;;5092162;28;20031;-84
2021/08/23 06:53:08;;;;;;;44.25;33.90;;;18.40;93.30;;;;;;5094630;28;20383;-82
2021/08/23 06:55:34;;;;;;;37.30;30.55;;;18.50;93.30;;;;;;5113904;28;20395;-80
2021/08/23 06:58:00;;;;;;;36.53;28.73;;;18.60;93.30;;;;;;5123361;28;20472;-81
2021/08/23 07:00:26;;;;;;;37.00;29.90;;;18.80;93.20;;;;;;5118483;28;20034;-79
2021/08/23 07:02:52;;;;;;;38.13;32.35;;;18.80;93.20;;;;;;5097585;28;20036;-83
2021/08/23 07:05:18;;;;;;;40.95;31.30;;;18.80;92.80;;;;;;5119290;28;20110;-80
2021/08/23 07:07:43;;;;;;;42.25;30.33;;;18.70;92.70;;;;;;5093549;28;20826;-82
2021/08/23 07:10:12;;;;;;;42.30;31.88;;;18.70;92.80;;;;;;5087095;28;20032;-81
2021/08/23 07:12:42;;;;;;;43.47;32.95;;;18.50;92.70;;;;;;5111137;28;20047;-81
2021/08/23 07:15:08;;;;;;;37.85;29.90;;;18.40;92.80;;;;;;5112203;28;20024;-81
2021/08/23 07:17:34;;;;;;;41.13;33.33;;;18.40;93.00;;;;;;5111845;28;20024;-81
2021/08/23 07:20:00;;;;;;;49.00;39.00;;;18.30;93.00;;;;;;5110683;28;20031;-81
2021/08/23 07:22:26;;;;;;;47.45;35.33;;;18.30;93.20;;;;;;5108251;28;20096;-82
2021/08/23 07:24:52;;;;;;;49.63;38.67;;;18.30;93.10;;;;;;5106764;28;20460;-82
2021/08/23 07:27:18;;;;;;;46.63;34.47;;;18.20;93.10;;;;;;5103887;28;20448;-79
2021/08/23 07:29:43;;;;;;;45.83;31.70;;;18.30;93.20;;;;;;5105200;28;20043;-80
2021/08/23 07:32:10;;;;;;;43.78;34.38;;;18.40;93.10;;;;;;5078643;28;20534;-81
2021/08/23 07:34:35;;;;;;;39.85;30.65;;;18.60;93.10;;;;;;5103363;28;20051;-82
2021/08/23 07:37:01;;;;;;;38.13;31.05;;;18.90;92.80;;;;;;5103908;28;20071;-81
2021/08/23 07:39:27;;;;;;;35.90;28.92;;;19.20;92.50;;;;;;5082722;28;20051;-81
2021/08/23 07:41:53;;;;;;;32.88;26.27;;;19.40;92.10;;;;;;5089060;28;20440;-81
2021/08/23 07:44:18;;;;;;;31.75;24.50;;;19.50;91.70;;;;;;5092848;28;20054;-80
2021/08/23 07:46:44;;;;;;;30.40;24.38;;;19.70;91.70;;;;;;5084242;28;20035;-81
2021/08/23 07:49:10;;;;;;;29.67;23.88;;;19.80;91.20;;;;;;5090092;28;20051;-81
2021/08/23 07:51:35;;;;;;;34.95;23.55;;;19.70;90.90;;;;;;5112509;28;20051;-80
2021/08/23 07:54:01;;;;;;;30.38;22.95;;;19.60;90.70;;;;;;5110543;28;20032;-81
2021/08/23 07:56:29;;;;;;;26.75;21.45;;;19.60;90.60;;;;;;5093298;28;20028;-80
2021/08/23 07:58:56;;;;;;;27.88;20.15;;;19.50;90.60;;;;;;5110951;28;20035;-81
2021/08/23 08:01:22;;;;;;;27.02;19.00;;;19.50;90.60;;;;;;5093417;28;20032;-80
2021/08/23 08:03:48;;;;;;;25.77;19.25;;;19.60;90.50;;;;;;5085089;28;20035;-80
2021/08/23 08:06:15;;;;;;;23.77;17.70;;;19.70;90.50;;;;;;5109800;28;20036;-80
2021/08/23 08:08:42;;;;;;;24.70;19.23;;;19.80;90.30;;;;;;5106242;28;20032;-80
2021/08/23 08:11:08;;;;;;;27.38;19.08;;;20.00;90.30;;;;;;5100591;28;20551;-81
2021/08/23 08:13:33;;;;;;;24.70;18.75;;;20.00;89.50;;;;;;5103587;28;20111;-80
2021/08/23 08:15:59;;;;;;;24.92;18.23;;;19.90;89.60;;;;;;5111507;28;20471;-79
2021/08/23 08:18:25;;;;;;;24.50;18.98;;;19.90;89.00;;;;;;5112197;28;20111;-80
2021/08/23 08:20:50;;;;;;;26.77;19.67;;;19.60;88.80;;;;;;5118061;28;20031;-79
2021/08/23 08:23:16;;;;;;;24.17;19.25;;;19.50;88.80;;;;;;5098901;28;20458;-82
2021/08/23 08:25:42;;;;;;;24.98;18.55;;;19.40;88.90;;;;;;5100371;28;20034;-81
2021/08/23 08:28:07;;;;;;;26.55;19.73;;;19.10;89.40;;;;;;5082923;28;20028;-84
2021/08/23 08:30:33;;;;;;;25.45;19.23;;;19.00;90.20;;;;;;5116466;28;20032;-81
2021/08/23 08:32:59;;;;;;;25.83;19.85;;;19.00;90.60;;;;;;5098257;28;20036;-81
2021/08/23 08:35:24;;;;;;;21.85;16.50;;;19.00;90.70;;;;;;5088221;28;20070;-78
2021/08/23 08:37:52;;;;;;;21.77;17.40;;;19.10;90.80;;;;;;5094860;28;20377;-76
2021/08/23 08:40:18;;;;;;;23.98;17.17;;;19.20;90.60;;;;;;5101868;28;20078;-78
2021/08/23 08:42:45;;;;;;;21.83;16.88;;;19.20;90.40;;;;;;5114180;28;20459;-78
2021/08/23 08:45:11;;;;;;;20.45;15.65;;;19.30;90.30;;;;;;5113649;28;20020;-79
2021/08/23 08:47:42;;;;;;;17.98;15.95;;;19.40;90.10;;;;;;5114549;28;20035;-79
2021/08/23 08:50:12;;;;;;;19.35;16.15;;;19.50;89.60;;;;;;5114925;28;20112;-79
2021/08/23 08:52:38;;;;;;;19.02;14.70;;;19.50;89.20;;;;;;5114269;28;20023;-78
2021/08/23 08:55:05;;;;;;;18.83;15.25;;;19.70;89.30;;;;;;5114707;28;20026;-77
2021/08/23 08:57:31;;;;;;;17.25;15.38;;;20.00;88.60;;;;;;5115979;28;20088;-78
2021/08/23 08:59:57;;;;;;;17.65;15.30;;;20.40;86.80;;;;;;5114573;28;20015;-77
2021/08/23 09:02:23;;;;;;;16.23;14.57;;;20.90;85.60;;;;;;5113502;28;20080;-78
2021/08/23 09:04:48;;;;;;;14.50;12.95;;;21.20;83.80;;;;;;5114342;28;20228;-77
2021/08/23 09:07:14;;;;;;;17.42;13.93;;;21.60;83.30;;;;;;5107959;28;20395;-78
2021/08/23 09:09:40;;;;;;;15.18;13.57;;;22.00;81.60;;;;;;5075425;28;20040;-78
2021/08/23 09:12:11;;;;;;;16.50;14.45;;;22.30;81.40;;;;;;5106732;28;20062;-76
2021/08/23 09:14:48;;;;;;;16.13;14.30;;;22.30;80.40;;;;;;5109772;28;20027;-78
2021/08/23 09:17:13;;;;;;;22.30;16.00;;;22.10;80.80;;;;;;5114207;28;20023;-81
2021/08/23 09:19:40;;;;;;;17.80;14.77;;;22.20;81.00;;;;;;5113308;28;20076;-78
2021/08/23 09:22:25;;;;;;;18.17;16.00;;;22.40;80.60;;;;;;5114054;28;20034;-76
2021/08/23 09:24:51;;;;;;;15.60;13.93;;;22.80;78.90;;;;;;5113527;28;20084;-77
2021/08/23 09:27:17;;;;;;;15.98;14.27;;;22.80;77.20;;;;;;5112487;28;20035;-78
2021/08/23 09:29:54;;;;;;;15.23;13.70;;;22.80;76.00;;;;;;5112478;28;20475;-78
2021/08/23 09:32:20;;;;;;;15.73;14.13;;;22.60;77.10;;;;;;5093946;28;20077;-78
2021/08/23 09:34:47;;;;;;;13.88;12.38;;;22.60;77.60;;;;;;5094280;28;20024;-78
2021/08/23 09:37:21;;;;;;;15.68;13.40;;;22.50;77.40;;;;;;5094427;28;20048;-82
2021/08/23 09:39:48;;;;;;;15.40;13.75;;;22.60;77.50;;;;;;5093940;28;20036;-79
2021/08/23 09:42:19;;;;;;;14.32;12.32;;;22.80;76.90;;;;;;5093137;28;20035;-84
2021/08/23 09:44:45;;;;;;;11.82;10.43;;;23.00;76.50;;;;;;5094583;28;20031;-79
2021/08/23 09:47:10;;;;;;;14.73;11.82;;;23.20;76.10;;;;;;5093539;28;20028;-78
2021/08/23 09:49:39;;;;;;;12.32;11.20;;;23.20;75.40;;;;;;5093308;28;20169;-78
2021/08/23 09:52:06;;;;;;;12.50;11.30;;;23.00;75.50;;;;;;5095047;28;20059;-75
2021/08/23 09:54:34;;;;;;;13.60;11.38;;;22.70;75.90;;;;;;5094367;28;20028;-75
2021/08/23 09:57:00;;;;;;;14.20;12.90;;;22.50;76.50;;;;;;5092123;28;20488;-79
2021/08/23 09:59:28;;;;;;;12.80;11.48;;;22.20;76.50;;;;;;5094018;28;20125;-79
2021/08/23 10:01:56;;;;;;;13.30;11.23;;;21.90;77.50;;;;;;5093174;28;20055;-78
2021/08/23 10:04:22;;;;;;;13.13;11.73;;;21.60;78.00;;;;;;5094446;28;20039;-78
2021/08/23 10:06:52;;;;;;;12.23;11.00;;;21.40;78.20;;;;;;5094185;28;20016;-79
2021/08/23 10:09:23;;;;;;;13.40;11.38;;;21.30;78.90;;;;;;5094148;28;20027;-82
2021/08/23 10:11:50;;;;;;;11.63;10.48;;;21.30;79.10;;;;;;5094787;28;20090;-76
2021/08/23 10:14:17;;;;;;;12.38;11.00;;;21.30;78.90;;;;;;5095002;28;20107;-79
2021/08/23 10:16:43;;;;;;;10.45;9.40;;;21.20;79.60;;;;;;5092743;28;20084;-78
2021/08/23 10:19:09;;;;;;;12.30;9.68;;;21.10;78.00;;;;;;5094153;28;20028;-78
2021/08/23 10:21:41;;;;;;;12.07;10.40;;;21.00;78.10;;;;;;5075846;28;20036;-78
2021/08/23 10:24:08;;;;;;;11.52;9.40;;;20.80;78.40;;;;;;5092946;28;20024;-80
2021/08/23 10:26:45;;;;;;;11.15;10.05;;;20.80;79.00;;;;;;5093386;28;20020;-80
2021/08/23 10:29:13;;;;;;;11.63;10.43;;;20.90;79.30;;;;;;5111328;28;20096;-79
2021/08/23 10:31:42;;;;;;;9.73;8.73;;;21.00;79.40;;;;;;5113961;28;20043;-79
2021/08/23 10:34:16;;;;;;;9.52;8.57;;;21.00;78.60;;;;;;5114627;28;20035;-81
2021/08/23 10:36:44;;;;;;;9.02;8.13;;;21.20;78.20;;;;;;5113702;28;20024;-82
2021/08/23 10:39:16;;;;;;;11.52;9.68;;;21.30;77.60;;;;;;5112567;28;20080;-77
2021/08/23 10:41:42;;;;;;;10.98;8.52;;;21.40;76.80;;;;;;5113087;28;20031;-79
2021/08/23 10:44:08;;;;;;;9.23;8.32;;;21.50;77.30;;;;;;5112227;28;20035;-78
2021/08/23 10:46:39;;;;;;;8.73;7.78;;;21.60;76.60;;;;;;5112175;28;20081;-80
2021/08/23 10:49:15;;;;;;;9.43;8.45;;;21.60;77.30;;;;;;5111909;28;20452;-79
2021/08/23 10:51:56;;;;;;;9.40;8.38;;;21.40;76.20;;;;;;5110442;28;20031;-81
2021/08/23 10:54:27;;;;;;;8.23;7.07;;;21.30;77.50;;;;;;5094039;28;20024;-79
2021/08/23 10:56:59;;;;;;;12.00;8.27;;;21.30;78.00;;;;;;5111047;28;20051;-77
2021/08/23 10:59:24;;;;;;;12.70;7.10;;;21.50;78.00;;;;;;5110093;28;20034;-77
2021/08/23 11:01:56;;;;;;;7.68;6.88;;;21.60;77.60;;;;;;5109963;28;20043;-78
2021/08/23 11:04:33;;;;;;;7.13;6.43;;;21.80;77.40;;;;;;5111616;28;20097;-78
2021/08/23 11:07:01;;;;;;;8.35;6.40;;;22.00;77.20;;;;;;5111086;28;20019;-78
2021/08/23 11:09:43;;;;;;;8.70;7.80;;;22.10;76.30;;;;;;5111674;28;20061;-81
2021/08/23 11:12:17;;;;;;;8.63;7.70;;;22.10;75.50;;;;;;5110465;28;20043;-78
2021/08/23 11:14:49;;;;;;;8.02;6.60;;;22.30;75.60;;;;;;5110954;28;20052;-77
2021/08/23 11:17:26;;;;;;;7.25;5.80;;;22.50;74.80;;;;;;5111351;28;20426;-78
2021/08/23 11:19:51;;;;;;;9.35;7.00;;;22.80;74.90;;;;;;5104427;28;20097;-76
2021/08/23 11:22:18;;;;;;;8.32;6.65;;;22.90;73.40;;;;;;5105397;28;20475;-77
2021/08/23 11:24:44;;;;;;;9.32;7.82;;;22.90;72.90;;;;;;5109697;28;20089;-76
2021/08/23 11:27:09;;;;;;;7.47;6.57;;;22.70;71.80;;;;;;5097533;28;20471;-78
2021/08/23 11:29:38;;;;;;;6.63;5.90;;;22.60;73.90;;;;;;5072765;28;20478;-78
2021/08/23 11:32:08;;;;;;;8.25;7.35;;;22.60;73.80;;;;;;5090313;28;20028;-76
2021/08/23 11:34:34;;;;;;;9.43;6.65;;;22.70;71.60;;;;;;5090728;28;20072;-80
2021/08/23 11:37:08;;;;;;;9.80;8.27;;;22.50;72.20;;;;;;5102221;28;20019;-76
2021/08/23 11:39:35;;;;;;;7.20;6.50;;;22.50;72.10;;;;;;5110532;28;20047;-84
2021/08/23 11:42:06;;;;;;;8.00;6.40;;;22.50;73.00;;;;;;5111760;28;20044;-78
2021/08/23 11:44:34;;;;;;;8.85;6.80;;;22.70;73.10;;;;;;5110921;28;20047;-79
2021/08/23 11:47:02;;;;;;;9.50;7.20;;;23.00;73.20;;;;;;5095191;28;20134;-77
2021/08/23 11:49:30;;;;;;;7.05;6.35;;;23.00;72.80;;;;;;5113846;28;20016;-77
2021/08/23 11:51:56;;;;;;;8.63;7.13;;;23.20;73.30;;;;;;5113409;28;20023;-76
2021/08/23 11:54:21;;;;;;;7.43;6.63;;;23.10;72.70;;;;;;5115143;28;20023;-78
2021/08/23 11:56:47;;;;;;;9.77;6.10;;;23.10;72.70;;;;;;5110346;28;20051;-78
2021/08/23 11:59:13;;;;;;;8.45;6.60;;;23.00;72.60;;;;;;5110517;28;20035;-79
2021/08/23 12:01:39;;;;;;;6.93;6.20;;;23.10;72.50;;;;;;5096834;28;20036;-80
2021/08/23 12:04:04;;;;;;;8.38;7.20;;;22.90;71.60;;;;;;5115332;28;20038;-78
2021/08/23 12:06:35;;;;;;;8.38;6.55;;;22.80;72.50;;;;;;5080618;28;20149;-77
2021/08/23 12:09:01;;;;;;;7.53;6.82;;;22.90;71.70;;;;;;5111840;28;20045;-78
2021/08/23 12:11:27;;;;;;;8.57;6.28;;;22.60;71.50;;;;;;5114559;28;20058;-79
2021/08/23 12:13:53;;;;;;;9.45;6.70;;;22.60;73.00;;;;;;5112961;28;20028;-78
2021/08/23 12:16:31;;;;;;;8.23;7.40;;;22.80;73.50;;;;;;5093440;28;20043;-79
2021/08/23 12:19:09;;;;;;;8.05;6.93;;;22.90;72.60;;;;;;5093566;28;20097;-78
2021/08/23 12:21:36;;;;;;;9.73;5.72;;;22.90;71.70;;;;;;5093952;28;20070;-80
2021/08/23 12:24:09;;;;;;;8.00;6.72;;;22.90;71.60;;;;;;5094760;28;20085;-79
2021/08/23 12:26:48;;;;;;;6.38;5.75;;;22.90;71.90;;;;;;5107118;28;20019;-78
2021/08/23 12:29:17;;;;;;;6.30;5.30;;;23.00;71.30;;;;;;5113375;28;20023;-79
2021/08/23 12:32:11;;;;;;;6.50;5.40;;;23.20;71.50;;;;;;5114760;28;20038;-83